createdAt,value
2023-03-13T00:00:57.014Z,99.99
2023-03-13T00:01:57.084Z,99.99
2023-03-13T00:02:57.023Z,99.99
2023-03-13T00:03:56.976Z,99.99
2023-03-13T00:04:57.036Z,99.99
2023-03-13T00:05:56.953Z,99.99
2023-03-13T00:06:56.958Z,99.99
2023-03-13T00:07:56.988Z,99.99
2023-03-13T00:08:56.927Z,99.99
2023-03-13T00:09:56.910Z,99.99
2023-03-13T00:10:56.904Z,99.99
2023-03-13T00:11:56.896Z,99.99
2023-03-13T00:12:56.887Z,99.99
2023-03-13T00:13:56.896Z,99.99
2023-03-13T00:14:56.853Z,99.99
2023-03-13T00:15:56.838Z,99.99
2023-03-13T00:16:56.885Z,99.99
2023-03-13T00:17:56.818Z,99.99
2023-03-13T00:18:56.869Z,99.99
2023-03-13T00:19:56.836Z,99.99
2023-03-13T00:20:56.796Z,99.99
2023-03-13T00:21:56.775Z,99.99
2023-03-13T00:22:56.771Z,99.99
2023-03-13T00:23:56.752Z,99.99
2023-03-13T00:24:56.761Z,99.92
2023-03-13T00:25:56.759Z,99.98
2023-03-13T00:26:56.727Z,99.61
2023-03-13T00:27:56.709Z,99.99
2023-03-13T00:28:56.701Z,99.99
2023-03-13T00:29:56.693Z,99.99
2023-03-13T00:30:56.712Z,99.99
2023-03-13T00:31:56.719Z,99.99
2023-03-13T00:32:56.794Z,99.51
2023-03-13T00:33:56.649Z,99.51
2023-03-13T00:34:56.658Z,99.99
2023-03-13T00:35:56.697Z,99.77
2023-03-13T00:36:56.616Z,99.99
2023-03-13T00:37:56.647Z,99.99
2023-03-13T00:38:56.632Z,99.71
2023-03-13T00:39:56.580Z,98.83
2023-03-13T00:40:56.585Z,99.98
2023-03-13T00:41:56.572Z,99.99
2023-03-13T00:42:56.553Z,99.99
2023-03-13T00:43:56.571Z,98.93
2023-03-13T00:44:56.530Z,98.52
2023-03-13T00:45:56.571Z,98.52
2023-03-13T00:46:56.525Z,98.05
2023-03-13T00:47:56.505Z,98.99
2023-03-13T00:48:56.499Z,99.66
2023-03-13T00:49:56.508Z,98.83
2023-03-13T00:50:56.495Z,98.62
2023-03-13T00:51:56.450Z,98.16
2023-03-13T00:52:56.467Z,98.21
2023-03-13T00:53:56.437Z,97.89
2023-03-13T00:54:56.418Z,97.78
2023-03-13T00:55:56.462Z,97.85
2023-03-13T00:56:56.407Z,98.41
2023-03-13T00:57:56.379Z,98.10
2023-03-13T00:58:56.410Z,98.72
2023-03-13T00:59:56.364Z,99.35
2023-03-13T01:00:56.359Z,99.71
2023-03-13T01:01:56.411Z,99.82
2023-03-13T01:02:56.445Z,99.08
2023-03-13T01:03:56.315Z,98.77
2023-03-13T01:04:57.792Z,99.77
2023-03-13T01:05:56.296Z,99.92
2023-03-13T01:06:56.320Z,99.99
2023-03-13T01:07:56.332Z,99.99
2023-03-13T01:08:56.305Z,98.14
2023-03-13T01:09:56.252Z,98.04
2023-03-13T01:10:56.247Z,97.05
2023-03-13T01:11:56.232Z,97.83
2023-03-13T01:12:56.230Z,96.68
2023-03-13T01:13:56.257Z,96.47
2023-03-13T01:14:56.214Z,96.74
2023-03-13T01:15:56.319Z,96.53
2023-03-13T01:16:56.184Z,97.99
2023-03-13T01:17:56.178Z,97.83
2023-03-13T01:18:56.196Z,97.53
2023-03-13T01:19:56.189Z,96.05
2023-03-13T01:20:56.147Z,96.84
2023-03-13T01:21:56.124Z,97.62
2023-03-13T01:22:56.153Z,97.10
2023-03-13T01:23:56.106Z,95.84
2023-03-13T01:24:56.105Z,96.84
2023-03-13T01:25:56.120Z,94.07
2023-03-13T01:26:56.136Z,94.23
2023-03-13T01:27:56.067Z,95.84
2023-03-13T01:28:56.051Z,96.89
2023-03-13T01:29:56.037Z,98.56
2023-03-13T01:30:56.064Z,98.56
2023-03-13T01:31:56.072Z,98.77
2023-03-13T01:32:56.137Z,96.68
2023-03-13T01:33:55.999Z,95.74
2023-03-13T01:34:56.008Z,94.27
2023-03-13T01:35:56.041Z,93.61
2023-03-13T01:36:55.961Z,94.65
2023-03-13T01:37:55.990Z,95.34
2023-03-13T01:38:55.973Z,94.40
2023-03-13T01:39:55.927Z,94.65
2023-03-13T01:40:55.918Z,93.67
2023-03-13T01:41:55.906Z,94.61
2023-03-13T01:42:55.915Z,94.50
2023-03-13T01:43:55.926Z,93.46
2023-03-13T01:44:55.887Z,92.63
2023-03-13T01:45:55.981Z,92.31
2023-03-13T01:46:55.855Z,92.94
2023-03-13T01:47:55.835Z,93.15
2023-03-13T01:48:55.842Z,93.35
2023-03-13T01:49:55.860Z,93.82
2023-03-13T01:50:55.806Z,93.35
2023-03-13T01:51:55.809Z,92.73
2023-03-13T01:52:55.786Z,94.40
2023-03-13T01:53:55.770Z,94.92
2023-03-13T01:54:55.781Z,95.65
2023-03-13T01:55:55.793Z,95.65
2023-03-13T01:56:55.758Z,93.77
2023-03-13T01:57:55.727Z,93.04
2023-03-13T01:58:55.719Z,93.63
2023-03-13T01:59:55.704Z,93.57
2023-03-13T02:00:55.696Z,93.35
2023-03-13T02:01:55.823Z,93.84
2023-03-13T02:02:55.810Z,94.09
2023-03-13T02:03:55.660Z,94.67
2023-03-13T02:04:55.670Z,94.19
2023-03-13T02:05:55.638Z,93.67
2023-03-13T02:06:55.628Z,93.67
2023-03-13T02:07:55.657Z,95.55
2023-03-13T02:08:55.619Z,95.80
2023-03-13T02:09:55.599Z,93.77
2023-03-13T02:10:55.611Z,91.16
2023-03-13T02:11:55.577Z,91.85
2023-03-13T02:12:55.615Z,91.54
2023-03-13T02:13:55.551Z,91.96
2023-03-13T02:14:55.541Z,91.54
2023-03-13T02:15:55.607Z,91.85
2023-03-13T02:16:55.516Z,91.02
2023-03-13T02:17:55.505Z,89.76
2023-03-13T02:18:55.551Z,90.70
2023-03-13T02:19:55.483Z,90.66
2023-03-13T02:20:55.474Z,90.66
2023-03-13T02:21:55.457Z,90.97
2023-03-13T02:22:55.466Z,91.29
2023-03-13T02:23:55.449Z,91.08
2023-03-13T02:24:55.466Z,90.45
2023-03-13T02:25:55.420Z,89.83
2023-03-13T02:26:55.431Z,90.87
2023-03-13T02:27:55.397Z,91.14
2023-03-13T02:28:55.388Z,90.56
2023-03-13T02:29:55.386Z,90.14
2023-03-13T02:30:55.392Z,90.72
2023-03-13T02:31:55.354Z,90.66
2023-03-13T02:32:55.386Z,90.03
2023-03-13T02:33:55.331Z,88.22
2023-03-13T02:34:55.328Z,87.70
2023-03-13T02:35:55.384Z,88.43
2023-03-13T02:36:55.343Z,89.37
2023-03-13T02:37:55.289Z,90.20
2023-03-13T02:38:55.303Z,88.85
2023-03-13T02:39:55.267Z,89.78
2023-03-13T02:40:55.250Z,89.95
2023-03-13T02:41:55.256Z,90.20
2023-03-13T02:42:55.268Z,90.20
2023-03-13T02:43:55.216Z,88.95
2023-03-13T02:44:55.208Z,87.60
2023-03-13T02:45:55.206Z,87.39
2023-03-13T02:46:55.235Z,86.35
2023-03-13T02:47:55.175Z,87.35
2023-03-13T02:48:55.202Z,86.61
2023-03-13T02:49:55.154Z,85.78
2023-03-13T02:50:55.146Z,84.12
2023-03-13T02:51:55.147Z,84.01
2023-03-13T02:52:55.130Z,83.49
2023-03-13T02:53:55.116Z,83.04
2023-03-13T02:54:55.130Z,83.97
2023-03-13T02:55:55.102Z,84.39
2023-03-13T02:56:55.083Z,84.60
2023-03-13T02:57:55.068Z,84.18
2023-03-13T02:58:55.092Z,83.35
2023-03-13T02:59:55.046Z,85.02
2023-03-13T03:00:55.194Z,84.91
2023-03-13T03:01:55.037Z,84.04
2023-03-13T03:02:55.019Z,83.97
2023-03-13T03:03:55.039Z,81.23
2023-03-13T03:04:55.011Z,81.33
2023-03-13T03:05:54.986Z,83.94
2023-03-13T03:06:55.015Z,87.10
2023-03-13T03:07:54.962Z,86.33
2023-03-13T03:08:54.962Z,84.70
2023-03-13T03:09:54.942Z,85.74
2023-03-13T03:10:54.951Z,85.85
2023-03-13T03:11:54.919Z,85.99
2023-03-13T03:12:54.946Z,85.58
2023-03-13T03:13:54.922Z,87.20
2023-03-13T03:14:54.911Z,89.60
2023-03-13T03:15:54.876Z,88.08
2023-03-13T03:16:54.884Z,83.59
2023-03-13T03:17:54.887Z,82.10
2023-03-13T03:18:54.881Z,82.41
2023-03-13T03:19:54.841Z,82.10
2023-03-13T03:20:54.824Z,82.10
2023-03-13T03:21:54.828Z,82.51
2023-03-13T03:22:54.798Z,84.91
2023-03-13T03:23:54.789Z,80.43
2023-03-13T03:24:54.814Z,79.70
2023-03-13T03:25:54.768Z,82.72
2023-03-13T03:26:54.764Z,83.73
2023-03-13T03:27:54.745Z,84.87
2023-03-13T03:28:54.758Z,82.48
2023-03-13T03:29:54.720Z,79.49
2023-03-13T03:30:54.746Z,80.95
2023-03-13T03:31:54.786Z,82.17
2023-03-13T03:32:54.836Z,84.04
2023-03-13T03:33:54.680Z,82.75
2023-03-13T03:34:54.673Z,82.65
2023-03-13T03:35:54.758Z,83.52
2023-03-13T03:36:54.675Z,84.28
2023-03-13T03:37:54.633Z,85.43
2023-03-13T03:38:54.630Z,86.27
2023-03-13T03:39:54.625Z,87.45
2023-03-13T03:40:54.598Z,86.83
2023-03-13T03:41:54.590Z,87.24
2023-03-13T03:42:54.615Z,87.24
2023-03-13T03:43:54.574Z,89.85
2023-03-13T03:44:54.577Z,90.20
2023-03-13T03:45:54.567Z,89.47
2023-03-13T03:46:54.622Z,90.62
2023-03-13T03:47:54.534Z,88.81
2023-03-13T03:48:54.548Z,85.99
2023-03-13T03:49:54.507Z,85.02
2023-03-13T03:50:54.520Z,83.35
2023-03-13T03:51:54.484Z,83.94
2023-03-13T03:52:54.470Z,82.75
2023-03-13T03:53:54.463Z,80.26
2023-03-13T03:54:54.476Z,80.98
2023-03-13T03:55:54.444Z,80.26
2023-03-13T03:56:54.442Z,80.36
2023-03-13T03:57:54.420Z,80.53
2023-03-13T03:58:54.412Z,80.84
2023-03-13T03:59:54.433Z,80.43
2023-03-13T04:00:54.458Z,80.26
2023-03-13T04:01:54.446Z,82.30
2023-03-13T04:02:54.498Z,83.69
2023-03-13T04:03:54.356Z,84.21
2023-03-13T04:04:54.355Z,82.03
2023-03-13T04:05:54.342Z,80.98
2023-03-13T04:06:54.362Z,80.46
2023-03-13T04:07:54.314Z,78.49
2023-03-13T04:08:54.322Z,79.94
2023-03-13T04:09:54.300Z,79.63
2023-03-13T04:10:54.281Z,80.32
2023-03-13T04:11:54.272Z,81.71
2023-03-13T04:12:54.288Z,80.94
2023-03-13T04:13:54.251Z,80.15
2023-03-13T04:14:54.247Z,80.15
2023-03-13T04:15:54.231Z,80.67
2023-03-13T04:16:54.359Z,80.46
2023-03-13T04:17:54.212Z,79.83
2023-03-13T04:18:54.230Z,79.28
2023-03-13T04:19:54.191Z,78.14
2023-03-13T04:20:54.184Z,77.93
2023-03-13T04:21:54.170Z,77.09
2023-03-13T04:22:54.153Z,79.17
2023-03-13T04:23:54.152Z,78.66
2023-03-13T04:24:54.160Z,79.49
2023-03-13T04:25:54.122Z,78.76
2023-03-13T04:26:54.124Z,77.30
2023-03-13T04:27:54.105Z,74.98
2023-03-13T04:28:54.087Z,75.50
2023-03-13T04:29:54.081Z,76.43
2023-03-13T04:30:54.125Z,77.40
2023-03-13T04:31:54.057Z,76.64
2023-03-13T04:32:54.184Z,77.79
2023-03-13T04:33:54.036Z,78.45
2023-03-13T04:34:54.128Z,79.03
2023-03-13T04:35:54.060Z,79.28
2023-03-13T04:36:54.039Z,79.91
2023-03-13T04:37:53.992Z,77.89
2023-03-13T04:38:53.992Z,79.17
2023-03-13T04:39:53.992Z,78.62
2023-03-13T04:40:53.958Z,78.03
2023-03-13T04:41:53.948Z,80.39
2023-03-13T04:42:53.967Z,81.98
2023-03-13T04:43:53.926Z,80.43
2023-03-13T04:44:53.947Z,83.96
2023-03-13T04:45:53.945Z,83.54
2023-03-13T04:46:53.895Z,82.40
2023-03-13T04:47:53.885Z,80.63
2023-03-13T04:48:53.891Z,78.41
2023-03-13T04:49:53.865Z,78.31
2023-03-13T04:50:53.891Z,79.35
2023-03-13T04:51:53.840Z,78.41
2023-03-13T04:52:53.844Z,78.10
2023-03-13T04:53:53.820Z,78.20
2023-03-13T04:54:53.869Z,79.35
2023-03-13T04:55:53.822Z,79.45
2023-03-13T04:56:53.783Z,78.83
2023-03-13T04:57:53.778Z,77.55
2023-03-13T04:58:53.765Z,77.06
2023-03-13T04:59:53.772Z,76.43
2023-03-13T05:00:53.786Z,79.83
2023-03-13T05:01:53.804Z,81.08
2023-03-13T05:02:53.719Z,80.39
2023-03-13T05:03:53.723Z,77.86
2023-03-13T05:04:53.760Z,77.37
2023-03-13T05:05:53.712Z,77.86
2023-03-13T05:06:53.722Z,78.89
2023-03-13T05:07:53.678Z,78.27
2023-03-13T05:08:53.656Z,78.52
2023-03-13T05:09:53.648Z,75.15
2023-03-13T05:10:53.633Z,75.12
2023-03-13T05:11:53.639Z,77.86
2023-03-13T05:12:53.643Z,75.78
2023-03-13T05:13:53.619Z,74.39
2023-03-13T05:14:53.598Z,74.63
2023-03-13T05:15:53.636Z,74.91
2023-03-13T05:16:53.580Z,75.74
2023-03-13T05:17:54.704Z,75.54
2023-03-13T05:18:53.580Z,75.22
2023-03-13T05:19:53.541Z,74.91
2023-03-13T05:20:53.526Z,73.66
2023-03-13T05:21:53.530Z,74.60
2023-03-13T05:22:53.533Z,74.80
2023-03-13T05:23:53.509Z,74.49
2023-03-13T05:24:53.524Z,76.78
2023-03-13T05:25:53.475Z,78.23
2023-03-13T05:26:53.465Z,79.52
2023-03-13T05:27:53.458Z,80.35
2023-03-13T05:28:53.447Z,78.38
2023-03-13T05:29:53.457Z,78.48
2023-03-13T05:30:53.536Z,78.03
2023-03-13T05:31:53.413Z,78.34
2023-03-13T05:32:53.490Z,79.27
2023-03-13T05:33:53.387Z,79.17
2023-03-13T05:34:53.379Z,80.11
2023-03-13T05:35:53.468Z,80.98
2023-03-13T05:36:53.383Z,78.75
2023-03-13T05:37:53.345Z,76.16
2023-03-13T05:38:53.370Z,77.30
2023-03-13T05:39:53.325Z,77.51
2023-03-13T05:40:53.325Z,78.75
2023-03-13T05:41:53.312Z,75.74
2023-03-13T05:42:53.319Z,76.47
2023-03-13T05:43:53.278Z,76.89
2023-03-13T05:44:53.274Z,78.03
2023-03-13T05:45:53.259Z,77.40
2023-03-13T05:46:53.341Z,76.06
2023-03-13T05:47:53.245Z,75.50
2023-03-13T05:48:53.241Z,75.19
2023-03-13T05:49:53.225Z,75.81
2023-03-13T05:50:53.199Z,74.32
2023-03-13T05:51:53.190Z,75.40
2023-03-13T05:52:53.181Z,76.85
2023-03-13T05:53:53.173Z,75.50
2023-03-13T05:54:53.184Z,74.46
2023-03-13T05:55:53.168Z,74.88
2023-03-13T05:56:53.131Z,75.26
2023-03-13T05:57:53.123Z,75.81
2023-03-13T05:58:53.108Z,74.26
2023-03-13T05:59:53.104Z,76.19
2023-03-13T06:00:53.100Z,75.26
2023-03-13T06:01:53.089Z,76.81
2023-03-13T06:02:53.076Z,78.89
2023-03-13T06:03:53.211Z,81.21
2023-03-13T06:04:53.278Z,79.44
2023-03-13T06:05:53.045Z,76.33
2023-03-13T06:06:53.036Z,81.01
2023-03-13T06:07:53.010Z,81.46
2023-03-13T06:08:53.008Z,79.17
2023-03-13T06:09:53.028Z,78.55
2023-03-13T06:10:53.003Z,78.30
2023-03-13T06:11:52.964Z,77.37
2023-03-13T06:12:52.991Z,75.60
2023-03-13T06:13:52.944Z,75.15
2023-03-13T06:14:52.934Z,77.33
2023-03-13T06:15:53.008Z,81.11
2023-03-13T06:16:52.907Z,80.80
2023-03-13T06:17:52.900Z,78.44
2023-03-13T06:18:52.928Z,76.95
2023-03-13T06:19:52.879Z,77.99
2023-03-13T06:20:52.874Z,76.19
2023-03-13T06:21:52.886Z,73.39
2023-03-13T06:22:52.843Z,75.67
2023-03-13T06:23:52.847Z,75.46
2023-03-13T06:24:52.870Z,73.70
2023-03-13T06:25:52.831Z,73.36
2023-03-13T06:26:52.931Z,73.77
2023-03-13T06:27:52.792Z,74.71
2023-03-13T06:28:52.774Z,75.09
2023-03-13T06:29:52.784Z,76.33
2023-03-13T06:30:52.771Z,75.19
2023-03-13T06:31:52.829Z,76.12
2023-03-13T06:32:52.962Z,76.16
2023-03-13T06:33:52.727Z,77.99
2023-03-13T06:34:52.725Z,75.92
2023-03-13T06:35:56.666Z,74.05
2023-03-13T06:36:52.742Z,69.45
2023-03-13T06:37:52.683Z,68.49
2023-03-13T06:38:52.674Z,70.56
2023-03-13T06:39:52.661Z,72.53
2023-03-13T06:40:52.659Z,72.11
2023-03-13T06:41:52.658Z,72.63
2023-03-13T06:42:52.659Z,72.11
2023-03-13T06:43:52.618Z,71.39
2023-03-13T06:44:52.602Z,72.19
2023-03-13T06:45:52.620Z,72.11
2023-03-13T06:46:52.643Z,71.46
2023-03-13T06:47:52.571Z,73.98
2023-03-13T06:48:52.601Z,73.11
2023-03-13T06:49:52.555Z,73.53
2023-03-13T06:50:52.538Z,73.67
2023-03-13T06:51:52.545Z,73.43
2023-03-13T06:52:52.514Z,75.40
2023-03-13T06:53:52.625Z,76.23
2023-03-13T06:54:52.532Z,78.12
2023-03-13T06:55:52.489Z,76.88
2023-03-13T06:56:52.483Z,77.15
2023-03-13T06:57:52.486Z,77.19
2023-03-13T06:58:52.484Z,77.50
2023-03-13T06:59:52.467Z,77.81
2023-03-13T07:00:52.498Z,78.54
2023-03-13T07:01:52.428Z,78.96
2023-03-13T07:02:52.405Z,76.15
2023-03-13T07:03:52.445Z,79.74
2023-03-13T07:04:52.390Z,79.64
2023-03-13T07:05:52.406Z,78.30
2023-03-13T07:06:52.368Z,75.81
2023-03-13T07:07:52.362Z,75.22
2023-03-13T07:08:52.346Z,68.38
2023-03-13T07:09:52.363Z,66.12
2023-03-13T07:10:52.338Z,68.02
2023-03-13T07:11:52.358Z,62.97
2023-03-13T07:12:52.309Z,63.03
2023-03-13T07:13:52.539Z,61.61
2023-03-13T07:14:52.303Z,63.60
2023-03-13T07:15:52.289Z,67.76
2023-03-13T07:16:52.464Z,69.10
2023-03-13T07:17:52.274Z,69.44
2023-03-13T07:18:52.237Z,67.90
2023-03-13T07:19:52.288Z,69.03
2023-03-13T07:20:52.215Z,69.68
2023-03-13T07:21:52.223Z,71.06
2023-03-13T07:22:52.213Z,72.53
2023-03-13T07:23:52.208Z,70.26
2023-03-13T07:24:52.226Z,69.78
2023-03-13T07:25:52.166Z,69.06
2023-03-13T07:27:04.960Z,70.37
2023-03-13T07:27:53.153Z,72.53
2023-03-13T07:28:52.131Z,71.92
2023-03-13T07:29:52.150Z,71.06
2023-03-13T07:30:52.140Z,71.75
2023-03-13T07:31:52.214Z,67.35
2023-03-13T07:32:52.121Z,67.55
2023-03-13T07:33:52.090Z,68.07
2023-03-13T07:34:52.097Z,68.38
2023-03-13T07:35:52.110Z,68.48
2023-03-13T07:36:52.041Z,69.34
2023-03-13T07:37:52.032Z,70.99
2023-03-13T07:38:52.020Z,72.44
2023-03-13T07:39:52.022Z,72.99
2023-03-13T07:40:52.002Z,70.68
2023-03-13T07:41:52.008Z,70.17
2023-03-13T07:42:51.980Z,70.89
2023-03-13T07:43:51.962Z,69.51
2023-03-13T07:44:51.955Z,65.15
2023-03-13T07:45:52.058Z,68.96
2023-03-13T07:46:52.020Z,66.37
2023-03-13T07:47:51.945Z,61.65
2023-03-13T07:48:51.912Z,57.62
2023-03-13T07:49:52.004Z,56.82
2023-03-13T07:50:51.903Z,57.18
2023-03-13T07:51:51.880Z,55.85
2023-03-13T07:52:52.016Z,56.74
2023-03-13T07:53:51.879Z,57.46
2023-03-13T07:54:51.846Z,59.38
2023-03-13T07:55:51.839Z,58.73
2023-03-13T07:56:51.840Z,57.23
2023-03-13T07:57:51.812Z,59.38
2023-03-13T07:58:51.800Z,58.45
2023-03-13T07:59:51.808Z,58.33
2023-03-13T08:00:51.779Z,57.58
2023-03-13T08:01:51.775Z,58.50
2023-03-13T08:02:51.794Z,58.98
2023-03-13T08:03:51.898Z,59.30
2023-03-13T08:04:51.736Z,61.54
2023-03-13T08:05:51.741Z,61.34
2023-03-13T08:06:51.735Z,61.77
2023-03-13T08:07:51.727Z,61.34
2023-03-13T08:08:51.694Z,61.09
2023-03-13T08:09:51.678Z,61.96
2023-03-13T08:10:51.668Z,63.25
2023-03-13T08:11:51.665Z,63.35
2023-03-13T08:12:51.661Z,61.16
2023-03-13T08:13:51.647Z,63.34
2023-03-13T08:14:51.628Z,64.09
2023-03-13T08:15:51.613Z,64.50
2023-03-13T08:16:51.705Z,63.60
2023-03-13T08:17:51.598Z,63.64
2023-03-13T08:18:51.598Z,64.36
2023-03-13T08:19:51.574Z,62.88
2023-03-13T08:20:51.553Z,64.12
2023-03-13T08:21:51.540Z,64.12
2023-03-13T08:22:51.529Z,64.84
2023-03-13T08:23:51.547Z,65.35
2023-03-13T08:24:51.521Z,67.13
2023-03-13T08:25:51.496Z,67.33
2023-03-13T08:26:51.486Z,69.53
2023-03-13T08:27:51.472Z,69.80
2023-03-13T08:28:51.481Z,70.79
2023-03-13T08:29:51.485Z,69.43
2023-03-13T08:30:51.465Z,68.24
2023-03-13T08:31:51.428Z,62.26
2023-03-13T08:32:51.451Z,59.00
2023-03-13T08:33:51.404Z,57.15
2023-03-13T08:34:51.521Z,58.67
2023-03-13T08:35:51.453Z,61.64
2023-03-13T08:36:51.380Z,60.31
2023-03-13T08:37:51.359Z,61.20
2023-03-13T08:38:51.360Z,59.08
2023-03-13T08:39:51.336Z,57.54
2023-03-13T08:40:51.345Z,59.18
2023-03-13T08:41:51.328Z,59.77
2023-03-13T08:42:51.305Z,61.61
2023-03-13T08:43:51.292Z,59.77
2023-03-13T08:44:51.284Z,61.44
2023-03-13T08:45:51.315Z,61.20
2023-03-13T08:46:51.283Z,61.48
2023-03-13T08:47:51.260Z,64.56
2023-03-13T08:48:51.244Z,65.65
2023-03-13T08:49:51.229Z,62.78
2023-03-13T08:50:51.298Z,57.97
2023-03-13T08:51:51.228Z,57.05
2023-03-13T08:52:51.223Z,54.16
2023-03-13T08:53:51.190Z,51.90
2023-03-13T08:54:51.217Z,53.19
2023-03-13T08:55:51.166Z,51.12
2023-03-13T08:56:51.157Z,51.40
2023-03-13T08:57:51.144Z,49.38
2023-03-13T08:58:51.151Z,48.66
2023-03-13T08:59:51.133Z,50.63
2023-03-13T09:00:51.125Z,48.86
2023-03-13T09:01:51.118Z,58.40
2023-03-13T09:02:51.206Z,61.57
2023-03-13T09:03:51.192Z,62.90
2023-03-13T09:04:51.087Z,64.84
2023-03-13T09:05:56.246Z,63.41
2023-03-13T09:06:52.087Z,61.00
2023-03-13T09:07:51.035Z,58.25
2023-03-13T09:08:51.047Z,52.19
2023-03-13T09:09:51.015Z,65.60
2023-03-13T09:10:51.023Z,68.57
2023-03-13T09:11:51.009Z,68.57
2023-03-13T09:12:50.996Z,69.24
2023-03-13T09:13:50.972Z,65.71
2023-03-13T09:14:50.966Z,60.78
2023-03-13T09:15:51.006Z,62.35
2023-03-13T09:16:50.980Z,58.16
2023-03-13T09:17:50.962Z,61.58
2023-03-13T09:18:50.934Z,65.50
2023-03-13T09:20:00.124Z,62.61
2023-03-13T09:20:51.927Z,62.81
2023-03-13T09:21:50.895Z,64.34
2023-03-13T09:22:50.925Z,62.10
2023-03-13T09:23:50.865Z,61.76
2023-03-13T09:24:50.871Z,61.38
2023-03-13T09:25:50.841Z,61.61
2023-03-13T09:27:00.710Z,62.95
2023-03-13T09:27:51.816Z,63.49
2023-03-13T09:28:50.928Z,62.78
2023-03-13T09:29:50.817Z,61.35
2023-03-13T09:30:50.816Z,59.00
2023-03-13T09:31:50.774Z,59.00
2023-03-13T09:32:50.885Z,58.80
2023-03-13T09:33:50.801Z,66.80
2023-03-13T09:34:50.755Z,67.71
2023-03-13T09:35:50.842Z,66.25
2023-03-13T09:36:50.715Z,68.02
2023-03-13T09:37:50.711Z,67.88
2023-03-13T09:38:50.872Z,64.20
2023-03-13T09:39:50.708Z,67.10
2023-03-13T09:41:05.307Z,63.69
2023-03-13T09:41:51.660Z,68.60
2023-03-13T09:42:50.653Z,68.01
2023-03-13T09:43:50.660Z,66.28
2023-03-13T09:44:50.627Z,67.78
2023-03-13T09:45:50.647Z,68.29
2023-03-13T09:46:50.748Z,62.87
2023-03-13T09:47:50.601Z,58.83
2023-03-13T09:48:50.650Z,62.58
2023-03-13T09:49:50.570Z,63.22
2023-03-13T09:50:50.559Z,61.87
2023-03-13T09:51:50.579Z,63.95
2023-03-13T09:52:50.545Z,62.49
2023-03-13T09:53:50.531Z,64.50
2023-03-13T09:54:50.546Z,62.21
2023-03-13T09:55:50.565Z,61.09
2023-03-13T09:56:50.508Z,61.30
2023-03-13T09:57:50.507Z,62.70
2023-03-13T09:58:50.468Z,64.02
2023-03-13T09:59:50.454Z,62.76
2023-03-13T10:00:50.466Z,64.90
2023-03-13T10:01:50.471Z,64.25
2023-03-13T10:02:50.433Z,62.76
2023-03-13T10:03:50.475Z,61.32
2023-03-13T10:04:50.501Z,61.43
2023-03-13T10:05:50.394Z,61.09
2023-03-13T10:06:50.374Z,61.24
2023-03-13T10:07:50.427Z,62.05
2023-03-13T10:08:50.371Z,61.16
2023-03-13T10:09:50.369Z,59.36
2023-03-13T10:10:50.374Z,60.55
2023-03-13T10:11:50.320Z,59.30
2023-03-13T10:12:50.309Z,58.41
2023-03-13T10:13:50.316Z,57.29
2023-03-13T10:14:50.331Z,56.85
2023-03-13T10:15:50.396Z,57.44
2023-03-13T10:16:50.298Z,56.60
2023-03-13T10:17:50.266Z,55.07
2023-03-13T10:18:50.279Z,55.20
2023-03-13T10:19:50.235Z,56.98
2023-03-13T10:20:50.221Z,53.04
2023-03-13T10:21:50.229Z,51.79
2023-03-13T10:22:50.213Z,52.96
2023-03-13T10:23:50.190Z,46.98
2023-03-13T10:24:50.207Z,48.00
2023-03-13T10:25:50.165Z,51.31
2023-03-13T10:26:50.192Z,52.84
2023-03-13T10:27:51.105Z,52.84
2023-03-13T10:28:50.135Z,54.18
2023-03-13T10:29:50.143Z,59.27
2023-03-13T10:30:50.284Z,58.64
2023-03-13T10:31:50.183Z,58.26
2023-03-13T10:32:50.153Z,60.68
2023-03-13T10:33:50.098Z,58.40
2023-03-13T10:34:50.080Z,58.10
2023-03-13T10:35:50.118Z,59.37
2023-03-13T10:36:50.045Z,60.00
2023-03-13T10:37:50.034Z,58.61
2023-03-13T10:38:50.024Z,58.74
2023-03-13T10:39:50.040Z,59.66
2023-03-13T10:40:50.026Z,61.29
2023-03-13T10:41:49.993Z,60.09
2023-03-13T10:42:50.007Z,58.71
2023-03-13T10:43:49.968Z,59.91
2023-03-13T10:44:49.951Z,56.77
2023-03-13T10:45:49.962Z,56.68
2023-03-13T10:46:50.004Z,58.81
2023-03-13T10:47:49.931Z,58.76
2023-03-13T10:48:49.922Z,58.73
2023-03-13T10:49:49.924Z,55.83
2023-03-13T10:50:49.893Z,58.12
2023-03-13T10:51:49.903Z,57.03
2023-03-13T10:52:49.911Z,56.70
2023-03-13T10:53:49.857Z,57.23
2023-03-13T10:54:49.852Z,58.28
2023-03-13T10:55:49.836Z,56.93
2023-03-13T10:56:49.844Z,55.83
2023-03-13T10:57:49.841Z,57.16
2023-03-13T10:58:49.826Z,57.13
2023-03-13T10:59:49.796Z,56.62
2023-03-13T11:00:49.779Z,53.88
2023-03-13T11:01:49.774Z,54.57
2023-03-13T11:02:49.989Z,52.37
2023-03-13T11:03:49.851Z,51.89
2023-03-13T11:04:49.746Z,53.09
2023-03-13T11:05:49.726Z,56.12
2023-03-13T11:06:49.715Z,51.95
2023-03-13T11:07:49.710Z,51.48
2023-03-13T11:08:49.753Z,53.14
2023-03-13T11:09:49.701Z,54.13
2023-03-13T11:10:49.669Z,54.59
2023-03-13T11:11:49.678Z,52.25
2023-03-13T11:12:49.657Z,53.29
2023-03-13T11:13:49.656Z,51.95
2023-03-13T11:14:49.667Z,48.47
2023-03-13T11:15:49.663Z,49.30
2023-03-13T11:16:49.616Z,48.80
2023-03-13T11:17:49.603Z,51.31
2023-03-13T11:18:49.582Z,49.58
2023-03-13T11:19:50.238Z,51.92
2023-03-13T11:20:49.560Z,54.00
2023-03-13T11:21:49.599Z,48.75
2023-03-13T11:22:49.588Z,52.03
2023-03-13T11:23:49.539Z,49.89
2023-03-13T11:24:49.516Z,52.17
2023-03-13T11:25:49.505Z,52.76
2023-03-13T11:26:58.494Z,52.58
2023-03-13T11:27:50.520Z,51.36
2023-03-13T11:28:49.498Z,53.04
2023-03-13T11:29:49.521Z,52.81
2023-03-13T11:30:49.482Z,50.15
2023-03-13T11:31:49.527Z,49.87
2023-03-13T11:32:49.568Z,52.10
2023-03-13T11:33:49.438Z,54.41
2023-03-13T11:34:49.409Z,49.79
2023-03-13T11:35:49.540Z,52.20
2023-03-13T11:36:49.385Z,52.03
2023-03-13T11:37:49.380Z,55.76
2023-03-13T11:38:49.370Z,51.18
2023-03-13T11:39:49.377Z,52.10
2023-03-13T11:40:49.347Z,48.59
2023-03-13T11:41:49.398Z,51.62
2023-03-13T11:42:49.327Z,51.42
2023-03-13T11:43:49.321Z,52.86
2023-03-13T11:44:49.318Z,52.35
2023-03-13T11:45:49.468Z,53.19
2023-03-13T11:46:49.374Z,52.91
2023-03-13T11:47:49.264Z,52.91
2023-03-13T11:48:49.255Z,53.83
2023-03-13T11:49:49.242Z,52.20
2023-03-13T11:50:49.243Z,52.17
2023-03-13T11:51:49.269Z,53.93
2023-03-13T11:52:49.314Z,53.65
2023-03-13T11:53:49.210Z,52.96
2023-03-13T11:54:49.204Z,51.13
2023-03-13T11:55:49.188Z,51.00
2023-03-13T11:56:49.183Z,51.92
2023-03-13T11:57:49.163Z,52.83
2023-03-13T11:58:49.159Z,51.79
2023-03-13T11:59:49.127Z,52.33
2023-03-13T12:00:49.171Z,52.12
2023-03-13T12:01:49.200Z,51.81
2023-03-13T12:02:49.156Z,53.14
2023-03-13T12:03:49.096Z,53.14
2023-03-13T12:04:49.150Z,53.85
2023-03-13T12:05:49.076Z,55.07
2023-03-13T12:06:49.052Z,56.77
2023-03-13T12:07:49.040Z,53.32
2023-03-13T12:08:49.031Z,54.74
2023-03-13T12:09:49.017Z,54.26
2023-03-13T12:10:49.029Z,55.35
2023-03-13T12:11:49.004Z,54.36
2023-03-13T12:12:49.003Z,54.46
2023-03-13T12:13:48.976Z,53.65
2023-03-13T12:14:48.978Z,54.97
2023-03-13T12:15:48.967Z,53.27
2023-03-13T12:16:48.984Z,55.20
2023-03-13T12:17:48.988Z,56.70
2023-03-13T12:18:48.959Z,56.83
2023-03-13T12:19:48.909Z,56.35
2023-03-13T12:20:48.914Z,55.15
2023-03-13T12:21:48.959Z,52.40
2023-03-13T12:22:48.877Z,54.85
2023-03-13T12:23:48.917Z,55.33
2023-03-13T12:24:48.855Z,56.45
2023-03-13T12:25:48.945Z,58.28
2023-03-13T12:26:48.845Z,58.56
2023-03-13T12:27:48.897Z,58.26
2023-03-13T12:28:48.819Z,56.93
2023-03-13T12:29:48.802Z,57.14
2023-03-13T12:30:48.867Z,57.24
2023-03-13T12:31:48.786Z,55.41
2023-03-13T12:32:48.878Z,56.32
2023-03-13T12:33:48.760Z,57.72
2023-03-13T12:34:48.779Z,55.99
2023-03-13T12:35:48.775Z,57.95
2023-03-13T12:36:48.735Z,58.51
2023-03-13T12:37:48.732Z,59.01
2023-03-13T12:38:48.722Z,56.75
2023-03-13T12:39:48.705Z,54.00
2023-03-13T12:40:48.708Z,53.98
2023-03-13T12:41:48.670Z,52.94
2023-03-13T12:42:48.684Z,51.90
2023-03-13T12:44:00.749Z,54.41
2023-03-13T12:44:49.655Z,52.58
2023-03-13T12:45:48.777Z,53.22
2023-03-13T12:46:48.736Z,55.25
2023-03-13T12:47:48.610Z,56.24
2023-03-13T12:48:48.597Z,52.81
2023-03-13T12:49:48.584Z,52.76
2023-03-13T12:50:48.617Z,52.76
2023-03-13T12:51:48.572Z,51.04
2023-03-13T12:52:48.569Z,53.88